Time;durP1;ratioP1;P1;durP2;ratioP2;P2;SDS_P1;SDS_P2;PMS_P1;PMS_P2;Temp;Humidity;BMP_temperature;BMP_pressure;BME280_temperature;BME280_humidity;BME280_pressure;Samples;Min_cycle;Max_cycle;Signal;HPM_P1;HPM_P2
2022/09/06 00:01:24;;;;;;;4.73;2.97;;;;;;;;;;5081070;28;20686;-77
2022/09/06 00:03:51;;;;;;;4.63;2.83;;;;;;;;;;5088902;28;20735;-77
2022/09/06 00:06:20;;;;;;;3.93;2.87;;;;;;;;;;5081808;28;20281;-77
2022/09/06 00:08:48;;;;;;;4.50;2.77;;;;;;;;;;5084115;28;20290;-77
2022/09/06 00:11:16;;;;;;;4.73;2.87;;;;;;;;;;5083384;28;20205;-77
2022/09/06 00:13:44;;;;;;;2.90;2.57;;;;;;;;;;5082775;28;20681;-77
2022/09/06 00:16:12;;;;;;;4.93;2.70;;;;;;;;;;5083450;28;20286;-77
2022/09/06 00:18:39;;;;;;;4.70;3.07;;;;;;;;;;5084925;28;20233;-77
2022/09/06 00:21:14;;;;;;;9.97;3.27;;;;;;;;;;5081284;28;20263;-77
2022/09/06 00:23:43;;;;;;;5.77;3.47;;;;;;;;;;5087474;28;20274;-77
2022/09/06 00:26:10;;;;;;;7.47;3.37;;;;;;;;;;5083853;28;20206;-77
2022/09/06 00:28:38;;;;;;;7.60;3.07;;;;;;;;;;5083885;28;20296;-77
2022/09/06 00:31:09;;;;;;;4.53;3.00;;;;;;;;;;5084812;28;20300;-77
2022/09/06 00:33:36;;;;;;;5.77;3.57;;;;;;;;;;5081345;28;20266;-77
2022/09/06 00:36:03;;;;;;;8.13;3.70;;;;;;;;;;5084052;28;20583;-78
2022/09/06 00:38:31;;;;;;;4.83;2.80;;;;;;;;;;5083433;28;20225;-77
2022/09/06 00:40:59;;;;;;;3.50;2.80;;;;;;;;;;5084704;28;20288;-77
2022/09/06 00:43:26;;;;;;;6.13;3.13;;;;;;;;;;5084964;28;20313;-77
2022/09/06 00:45:54;;;;;;;4.30;3.13;;;;;;;;;;5079754;28;20317;-77
2022/09/06 00:48:22;;;;;;;5.47;3.13;;;;;;;;;;5083899;28;20855;-77
2022/09/06 00:50:50;;;;;;;6.57;3.27;;;;;;;;;;5084887;28;20198;-77
2022/09/06 00:53:17;;;;;;;7.50;3.07;;;;;;;;;;5087080;28;20696;-77
2022/09/06 00:55:44;;;;;;;6.00;2.97;;;;;;;;;;5080795;28;20284;-77
2022/09/06 00:58:13;;;;;;;7.67;2.97;;;;;;;;;;5080981;28;20275;-77
2022/09/06 01:00:40;;;;;;;4.50;3.00;;;;;;;;;;5085415;28;20233;-77
2022/09/06 01:03:08;;;;;;;6.57;3.27;;;;;;;;;;5079403;28;20226;-77
2022/09/06 01:05:39;;;;;;;6.40;2.93;;;;;;;;;;5090732;28;20694;-77
2022/09/06 01:08:09;;;;;;;6.23;3.10;;;;;;;;;;5081370;28;20313;-77
2022/09/06 01:10:47;;;;;;;3.93;2.63;;;;;;;;;;5084704;28;20717;-77
2022/09/06 01:13:25;;;;;;;4.43;3.00;;;;;;;;;;5082593;28;20285;-77
2022/09/06 01:15:55;;;;;;;7.80;2.87;;;;;;;;;;5082807;28;20637;-77
2022/09/06 01:18:29;;;;;;;3.77;2.97;;;;;;;;;;5083941;28;20664;-77
2022/09/06 01:21:02;;;;;;;4.33;2.93;;;;;;;;;;5082654;28;20292;-77
2022/09/06 01:23:43;;;;;;;6.37;3.43;;;;;;;;;;5079203;28;20264;-77
2022/09/06 01:26:20;;;;;;;4.57;3.07;;;;;;;;;;5085567;28;20224;-78
2022/09/06 01:28:49;;;;;;;5.13;2.93;;;;;;;;;;5085456;28;20747;-77
2022/09/06 01:31:25;;;;;;;4.83;2.60;;;;;;;;;;5083086;28;20264;-77
2022/09/06 01:33:58;;;;;;;6.90;3.53;;;;;;;;;;5083021;28;20293;-77
2022/09/06 01:36:26;;;;;;;11.93;3.63;;;;;;;;;;5086005;28;20288;-77
2022/09/06 01:38:54;;;;;;;7.23;3.20;;;;;;;;;;5081193;28;20252;-78
2022/09/06 01:41:21;;;;;;;5.17;2.90;;;;;;;;;;5086331;28;20265;-77
2022/09/06 01:43:50;;;;;;;8.00;3.67;;;;;;;;;;5084230;28;20529;-78
2022/09/06 01:46:19;;;;;;;4.73;3.00;;;;;;;;;;5081287;28;20293;-78
2022/09/06 01:49:03;;;;;;;6.20;3.30;;;;;;;;;;5084109;28;20209;-77
2022/09/06 01:51:31;;;;;;;3.80;3.00;;;;;;;;;;5087554;28;20619;-77
2022/09/06 01:54:03;;;;;;;6.90;3.37;;;;;;;;;;5085091;28;20639;-77
2022/09/06 01:56:34;;;;;;;7.50;3.17;;;;;;;;;;5083059;28;20297;-77
2022/09/06 01:59:14;;;;;;;6.50;2.93;;;;;;;;;;5081082;28;20304;-78
2022/09/06 02:01:45;;;;;;;4.03;3.10;;;;;;;;;;5085049;28;20225;-78
2022/09/06 02:04:15;;;;;;;5.37;3.00;;;;;;;;;;5085669;28;20269;-78
2022/09/06 02:06:44;;;;;;;4.97;3.03;;;;;;;;;;5084877;28;20304;-77
2022/09/06 02:09:13;;;;;;;4.67;3.10;;;;;;;;;;5081346;28;20622;-77
2022/09/06 02:11:43;;;;;;;4.97;2.90;;;;;;;;;;5081601;28;20194;-78
2022/09/06 02:14:13;;;;;;;5.87;3.07;;;;;;;;;;5080503;28;20285;-77
2022/09/06 02:16:42;;;;;;;9.03;3.27;;;;;;;;;;5084203;28;20239;-77
2022/09/06 02:19:13;;;;;;;7.47;2.60;;;;;;;;;;5080050;28;20293;-78
2022/09/06 02:21:42;;;;;;;5.90;3.00;;;;;;;;;;5085570;28;20572;-78
2022/09/06 02:24:10;;;;;;;4.00;2.87;;;;;;;;;;5082723;28;20295;-78
2022/09/06 02:26:39;;;;;;;5.30;3.03;;;;;;;;;;5079201;28;20819;-77
2022/09/06 02:29:06;;;;;;;6.60;2.90;;;;;;;;;;5080451;28;20216;-77
2022/09/06 02:31:38;;;;;;;5.77;2.70;;;;;;;;;;5080009;28;20215;-78
2022/09/06 02:34:05;;;;;;;4.40;2.80;;;;;;;;;;5081483;28;20747;-78
2022/09/06 02:36:33;;;;;;;6.80;3.10;;;;;;;;;;5080203;28;20206;-78
2022/09/06 02:39:00;;;;;;;5.37;3.23;;;;;;;;;;5080879;28;20654;-78
2022/09/06 02:41:29;;;;;;;8.63;3.23;;;;;;;;;;5083167;28;20214;-78
2022/09/06 02:43:57;;;;;;;10.47;4.10;;;;;;;;;;5083121;28;21424;-78
2022/09/06 02:46:24;;;;;;;7.67;3.40;;;;;;;;;;5083943;28;20363;-78
2022/09/06 02:48:52;;;;;;;4.70;3.30;;;;;;;;;;5082324;28;20573;-77
2022/09/06 02:51:20;;;;;;;5.30;3.10;;;;;;;;;;5078053;28;20240;-77
2022/09/06 02:53:47;;;;;;;4.20;2.70;;;;;;;;;;5080825;28;20211;-77
2022/09/06 02:56:14;;;;;;;4.83;2.83;;;;;;;;;;5081340;28;20289;-77
2022/09/06 02:58:42;;;;;;;5.50;2.93;;;;;;;;;;5081873;28;20292;-77
2022/09/06 03:01:09;;;;;;;8.43;3.43;;;;;;;;;;5079614;28;20212;-77
2022/09/06 03:03:36;;;;;;;6.07;3.57;;;;;;;;;;5080236;28;20237;-77
2022/09/06 03:06:05;;;;;;;5.83;3.37;;;;;;;;;;5078739;28;20680;-77
2022/09/06 03:08:35;;;;;;;9.97;3.40;;;;;;;;;;5085548;28;20308;-77
2022/09/06 03:11:02;;;;;;;5.00;2.87;;;;;;;;;;5076514;28;20262;-77
2022/09/06 03:13:29;;;;;;;5.43;3.20;;;;;;;;;;5082991;28;20197;-77
2022/09/06 03:15:58;;;;;;;8.60;3.53;;;;;;;;;;5079211;28;20216;-78
2022/09/06 03:18:25;;;;;;;5.07;2.67;;;;;;;;;;5074429;28;20750;-77
2022/09/06 03:20:52;;;;;;;5.70;2.57;;;;;;;;;;5081714;28;20300;-78
2022/09/06 03:23:22;;;;;;;7.07;3.20;;;;;;;;;;5079924;28;20309;-77
2022/09/06 03:25:49;;;;;;;4.57;3.03;;;;;;;;;;5080103;28;20251;-77
2022/09/06 03:28:17;;;;;;;5.77;2.80;;;;;;;;;;5082473;28;20249;-77
2022/09/06 03:30:45;;;;;;;6.53;3.03;;;;;;;;;;5083377;28;20571;-77
2022/09/06 03:33:12;;;;;;;5.87;3.43;;;;;;;;;;5079244;28;20294;-77
2022/09/06 03:35:40;;;;;;;7.63;3.30;;;;;;;;;;5082285;28;20738;-77
2022/09/06 03:38:08;;;;;;;7.23;3.40;;;;;;;;;;5077893;28;20504;-77
2022/09/06 03:40:36;;;;;;;5.83;3.43;;;;;;;;;;5081955;28;20209;-77
2022/09/06 03:43:03;;;;;;;5.20;3.03;;;;;;;;;;5078027;28;20263;-77
2022/09/06 03:45:30;;;;;;;8.70;2.90;;;;;;;;;;5082561;28;20716;-77
2022/09/06 03:47:58;;;;;;;7.13;3.00;;;;;;;;;;5081893;28;20301;-77
2022/09/06 03:50:25;;;;;;;4.03;2.77;;;;;;;;;;5080254;28;20296;-77
2022/09/06 03:52:52;;;;;;;7.97;3.30;;;;;;;;;;5080488;28;20202;-77
2022/09/06 03:55:19;;;;;;;5.90;3.30;;;;;;;;;;5083968;28;20248;-77
2022/09/06 03:57:48;;;;;;;10.53;3.00;;;;;;;;;;5077552;28;20228;-77
2022/09/06 04:00:16;;;;;;;5.20;3.23;;;;;;;;;;5080479;28;20665;-77
2022/09/06 04:02:43;;;;;;;5.90;3.10;;;;;;;;;;5077913;28;20202;-78
2022/09/06 04:05:12;;;;;;;8.17;3.43;;;;;;;;;;5081390;28;20300;-77
2022/09/06 04:07:39;;;;;;;4.73;3.30;;;;;;;;;;5080149;28;21605;-77
2022/09/06 04:10:07;;;;;;;9.93;3.33;;;;;;;;;;5081897;28;20225;-77
2022/09/06 04:12:34;;;;;;;5.83;3.07;;;;;;;;;;5077156;28;20267;-76
2022/09/06 04:15:02;;;;;;;4.97;3.43;;;;;;;;;;5079583;28;20329;-77
2022/09/06 04:17:30;;;;;;;6.27;4.10;;;;;;;;;;5081178;28;20309;-79
2022/09/06 04:19:57;;;;;;;7.17;4.00;;;;;;;;;;5082593;28;20197;-77
2022/09/06 04:22:24;;;;;;;6.23;3.57;;;;;;;;;;5082297;28;20300;-77
2022/09/06 04:24:51;;;;;;;12.20;4.20;;;;;;;;;;5079279;28;20221;-77
2022/09/06 04:27:18;;;;;;;6.87;3.40;;;;;;;;;;5077720;28;20304;-77
2022/09/06 04:29:45;;;;;;;11.03;3.90;;;;;;;;;;5081489;28;20202;-77
2022/09/06 04:32:14;;;;;;;9.50;3.60;;;;;;;;;;5082375;28;20289;-77
2022/09/06 04:34:42;;;;;;;6.73;3.47;;;;;;;;;;5078822;28;20194;-77
2022/09/06 04:37:10;;;;;;;8.53;3.67;;;;;;;;;;5079975;28;20221;-77
2022/09/06 04:39:37;;;;;;;15.80;3.70;;;;;;;;;;5082685;28;20249;-77
2022/09/06 04:42:04;;;;;;;7.13;3.63;;;;;;;;;;5077067;28;20202;-77
2022/09/06 04:44:31;;;;;;;13.47;4.13;;;;;;;;;;5081961;28;20301;-77
2022/09/06 04:47:08;;;;;;;8.10;3.57;;;;;;;;;;5081973;28;20320;-77
2022/09/06 04:49:37;;;;;;;5.43;3.23;;;;;;;;;;5085586;28;20189;-77
2022/09/06 04:52:04;;;;;;;6.13;3.50;;;;;;;;;;5077329;28;20202;-77
2022/09/06 04:54:31;;;;;;;8.70;4.00;;;;;;;;;;5085220;28;20277;-77
2022/09/06 04:56:58;;;;;;;9.10;3.50;;;;;;;;;;5085925;28;20213;-77
2022/09/06 04:59:25;;;;;;;12.33;3.53;;;;;;;;;;5080292;28;20880;-77
2022/09/06 05:01:53;;;;;;;8.70;3.40;;;;;;;;;;5082204;28;20224;-77
2022/09/06 05:04:20;;;;;;;7.93;3.40;;;;;;;;;;5080616;28;20228;-77
2022/09/06 05:06:48;;;;;;;10.03;4.20;;;;;;;;;;5082226;28;20283;-77
2022/09/06 05:09:16;;;;;;;8.00;3.33;;;;;;;;;;5081939;28;20241;-77
2022/09/06 05:11:43;;;;;;;13.57;4.07;;;;;;;;;;5080859;28;20201;-77
2022/09/06 05:14:10;;;;;;;5.57;3.50;;;;;;;;;;5080822;28;20203;-78
2022/09/06 05:16:37;;;;;;;6.60;3.50;;;;;;;;;;5079045;28;20302;-77
2022/09/06 05:19:04;;;;;;;7.33;3.63;;;;;;;;;;5084023;28;20228;-78
2022/09/06 05:21:31;;;;;;;6.77;3.70;;;;;;;;;;5082005;28;20193;-77
2022/09/06 05:24:00;;;;;;;7.00;3.60;;;;;;;;;;5078464;28;20352;-77
2022/09/06 05:26:27;;;;;;;8.63;3.27;;;;;;;;;;5081084;28;20198;-77
2022/09/06 05:28:54;;;;;;;9.87;3.33;;;;;;;;;;5084999;28;20206;-77
2022/09/06 05:31:27;;;;;;;6.47;3.90;;;;;;;;;;5082052;28;20332;-77
2022/09/06 05:33:54;;;;;;;7.70;3.53;;;;;;;;;;5081837;28;20285;-77
2022/09/06 05:36:22;;;;;;;7.23;3.50;;;;;;;;;;5082134;28;20212;-77
2022/09/06 05:38:49;;;;;;;8.80;3.70;;;;;;;;;;5083944;28;20289;-78
2022/09/06 05:41:18;;;;;;;15.77;3.43;;;;;;;;;;5080667;28;20218;-78
2022/09/06 05:43:45;;;;;;;11.27;3.40;;;;;;;;;;5079689;28;20217;-78
2022/09/06 05:46:13;;;;;;;8.73;3.40;;;;;;;;;;5080095;28;20237;-77
2022/09/06 05:48:40;;;;;;;8.77;3.60;;;;;;;;;;5076636;28;20659;-77
2022/09/06 05:51:11;;;;;;;7.93;3.27;;;;;;;;;;5080174;28;20624;-78
2022/09/06 05:53:39;;;;;;;6.43;3.00;;;;;;;;;;5078901;28;22111;-78
2022/09/06 05:56:07;;;;;;;10.93;3.10;;;;;;;;;;5086209;28;20712;-78
2022/09/06 05:58:36;;;;;;;9.83;3.30;;;;;;;;;;5082169;28;20790;-78
2022/09/06 06:01:08;;;;;;;11.30;3.10;;;;;;;;;;5082978;28;20209;-78
2022/09/06 06:03:35;;;;;;;10.33;3.27;;;;;;;;;;5078133;28;20232;-78
2022/09/06 06:06:02;;;;;;;10.03;3.30;;;;;;;;;;5081051;28;20650;-78
2022/09/06 06:08:29;;;;;;;8.90;2.90;;;;;;;;;;5082547;28;20228;-79
2022/09/06 06:10:59;;;;;;;6.60;3.00;;;;;;;;;;5084949;28;20603;-78
2022/09/06 06:13:28;;;;;;;6.13;3.17;;;;;;;;;;5085168;28;20199;-78
2022/09/06 06:15:57;;;;;;;8.83;2.87;;;;;;;;;;5075228;28;20227;-77
2022/09/06 06:18:24;;;;;;;4.57;2.37;;;;;;;;;;5077997;28;20223;-78
2022/09/06 06:20:51;;;;;;;8.40;2.83;;;;;;;;;;5084680;28;20265;-78
2022/09/06 06:23:18;;;;;;;7.10;2.93;;;;;;;;;;5080878;28;20574;-78
2022/09/06 06:25:46;;;;;;;11.60;3.10;;;;;;;;;;5087100;28;20229;-77
2022/09/06 06:28:13;;;;;;;7.77;2.87;;;;;;;;;;5087118;28;20313;-78
2022/09/06 06:30:40;;;;;;;7.67;2.93;;;;;;;;;;5088755;28;20197;-78
2022/09/06 06:33:08;;;;;;;8.27;2.63;;;;;;;;;;5086810;28;20665;-78
2022/09/06 06:35:36;;;;;;;6.47;2.40;;;;;;;;;;5086298;28;20289;-78
2022/09/06 06:38:03;;;;;;;6.50;2.43;;;;;;;;;;5083189;28;20322;-78
2022/09/06 06:40:30;;;;;;;5.07;2.30;;;;;;;;;;5077353;28;20208;-77
2022/09/06 06:42:57;;;;;;;4.13;2.50;;;;;;;;;;5075803;28;20206;-77
2022/09/06 06:45:25;;;;;;;8.80;2.43;;;;;;;;;;5082079;28;20305;-77
2022/09/06 06:47:52;;;;;;;7.60;2.60;;;;;;;;;;5079463;28;20217;-77
2022/09/06 06:50:21;;;;;;;9.83;3.30;;;;;;;;;;5079680;28;20202;-77
2022/09/06 06:52:48;;;;;;;9.40;2.87;;;;;;;;;;5078352;28;20210;-78
2022/09/06 06:55:15;;;;;;;10.07;2.97;;;;;;;;;;5081123;28;20293;-77
2022/09/06 06:57:42;;;;;;;10.87;2.30;;;;;;;;;;5076435;28;20225;-77
2022/09/06 07:00:11;;;;;;;8.07;2.30;;;;;;;;;;5072362;28;20202;-77
2022/09/06 07:02:38;;;;;;;5.27;2.20;;;;;;;;;;5080796;28;20215;-77
2022/09/06 07:05:05;;;;;;;7.77;2.50;;;;;;;;;;5082537;28;20257;-77
2022/09/06 07:07:34;;;;;;;5.60;2.27;;;;;;;;;;5087351;28;20214;-77
2022/09/06 07:10:02;;;;;;;9.47;3.07;;;;;;;;;;5077673;28;20307;-78
2022/09/06 07:12:29;;;;;;;7.00;2.83;;;;;;;;;;5101948;28;20218;-76
2022/09/06 07:14:56;;;;;;;7.47;2.50;;;;;;;;;;5097123;28;20222;-78
2022/09/06 07:17:23;;;;;;;6.53;2.80;;;;;;;;;;5089177;28;20285;-78
2022/09/06 07:19:51;;;;;;;6.87;2.97;;;;;;;;;;5080458;28;20647;-77
2022/09/06 07:22:18;;;;;;;9.87;2.80;;;;;;;;;;5087190;28;20283;-78
2022/09/06 07:24:46;;;;;;;8.83;2.17;;;;;;;;;;5081735;28;20256;-78
2022/09/06 07:27:13;;;;;;;7.03;2.30;;;;;;;;;;5080402;28;20227;-77
2022/09/06 07:29:41;;;;;;;5.97;2.57;;;;;;;;;;5084009;28;20240;-77
2022/09/06 07:32:08;;;;;;;7.07;2.27;;;;;;;;;;5080846;28;21760;-77
2022/09/06 07:34:36;;;;;;;4.43;2.07;;;;;;;;;;5086142;28;20276;-78
2022/09/06 07:37:03;;;;;;;5.63;2.40;;;;;;;;;;5084765;28;20213;-78
2022/09/06 07:39:31;;;;;;;5.07;2.30;;;;;;;;;;5075516;28;20221;-77
2022/09/06 07:42:00;;;;;;;5.17;2.10;;;;;;;;;;5076768;28;20687;-77
2022/09/06 07:44:27;;;;;;;6.97;2.47;;;;;;;;;;5075337;28;20308;-77
2022/09/06 07:46:55;;;;;;;4.57;2.10;;;;;;;;;;5083961;28;20234;-77
2022/09/06 07:49:22;;;;;;;9.57;2.20;;;;;;;;;;5087553;28;20280;-78
2022/09/06 07:51:49;;;;;;;5.80;2.10;;;;;;;;;;5084935;28;20297;-77
2022/09/06 07:54:17;;;;;;;5.93;1.83;;;;;;;;;;5086081;28;21292;-76
2022/09/06 07:56:44;;;;;;;5.13;2.00;;;;;;;;;;5092507;28;20242;-76
2022/09/06 07:59:12;;;;;;;6.10;2.13;;;;;;;;;;5083531;28;20194;-77
2022/09/06 08:01:40;;;;;;;7.15;2.00;;;;;;;;;;5091183;28;20343;-77
2022/09/06 08:04:08;;;;;;;4.57;2.15;;;;;;;;;;5081764;28;20317;-77
2022/09/06 08:06:36;;;;;;;8.90;2.45;;;;;;;;;;5083778;28;20226;-77
2022/09/06 08:09:04;;;;;;;2.88;1.85;;;;;;;;;;5083722;28;20211;-77
2022/09/06 08:11:32;;;;;;;7.00;1.83;;;;;;;;;;5088621;28;20655;-77
2022/09/06 08:13:59;;;;;;;5.82;2.00;;;;;;;;;;5085508;28;20208;-78
2022/09/06 08:16:29;;;;;;;7.35;1.92;;;;;;;;;;5088956;28;20199;-77
2022/09/06 08:18:56;;;;;;;7.22;1.83;;;;;;;;;;5083753;28;20235;-77
2022/09/06 08:21:25;;;;;;;7.53;2.20;;;;;;;;;;5085370;28;21039;-76
2022/09/06 08:23:53;;;;;;;5.22;1.80;;;;;;;;;;5090647;28;20229;-78
2022/09/06 08:26:21;;;;;;;4.20;1.90;;;;;;;;;;5081379;28;20501;-77
2022/09/06 08:28:48;;;;;;;5.47;1.60;;;;;;;;;;5087578;28;20206;-79
2022/09/06 08:31:16;;;;;;;13.23;1.83;;;;;;;;;;5084772;28;21954;-79
2022/09/06 08:33:46;;;;;;;6.53;1.70;;;;;;;;;;5082818;28;20285;-78
2022/09/06 08:36:14;;;;;;;3.37;1.67;;;;;;;;;;5081992;28;20202;-77
2022/09/06 08:38:41;;;;;;;5.70;1.47;;;;;;;;;;5090278;28;20207;-78
2022/09/06 08:41:10;;;;;;;4.43;1.40;;;;;;;;;;5083236;28;20192;-78
2022/09/06 08:43:38;;;;;;;2.07;1.60;;;;;;;;;;5087700;28;20312;-77
2022/09/06 08:46:07;;;;;;;2.33;1.40;;;;;;;;;;5089796;28;20247;-77
2022/09/06 08:48:38;;;;;;;4.27;1.50;;;;;;;;;;5097207;28;20327;-78
2022/09/06 08:51:16;;;;;;;3.90;1.70;;;;;;;;;;5090910;28;20293;-77
2022/09/06 08:53:46;;;;;;;6.03;1.50;;;;;;;;;;5097975;28;20202;-78
2022/09/06 08:56:16;;;;;;;3.27;1.40;;;;;;;;;;5096594;28;20194;-79
2022/09/06 08:58:57;;;;;;;4.90;1.30;;;;;;;;;;5094596;28;20254;-77
2022/09/06 09:01:25;;;;;;;2.73;1.33;;;;;;;;;;5092092;28;20284;-78
2022/09/06 09:03:53;;;;;;;5.37;1.40;;;;;;;;;;5096751;28;20635;-78
2022/09/06 09:06:23;;;;;;;3.40;1.37;;;;;;;;;;5092384;28;20245;-78
2022/09/06 09:08:55;;;;;;;4.00;1.33;;;;;;;;;;5091643;28;20667;-79
2022/09/06 09:11:24;;;;;;;3.63;1.40;;;;;;;;;;5099585;28;20241;-78
2022/09/06 09:13:53;;;;;;;4.53;1.40;;;;;;;;;;5096332;28;20288;-78
2022/09/06 09:16:21;;;;;;;2.90;1.40;;;;;;;;;;5090238;28;20225;-78
2022/09/06 09:18:50;;;;;;;4.87;1.70;;;;;;;;;;5091095;28;20217;-77
2022/09/06 09:21:20;;;;;;;3.37;1.43;;;;;;;;;;5090251;28;20251;-77
2022/09/06 09:23:51;;;;;;;4.53;1.20;;;;;;;;;;5095149;28;20265;-78
2022/09/06 09:26:18;;;;;;;3.80;1.33;;;;;;;;;;5084376;28;20277;-78
2022/09/06 09:29:00;;;;;;;3.00;1.07;;;;;;;;;;5084711;28;20262;-77
2022/09/06 09:31:34;;;;;;;1.73;1.20;;;;;;;;;;5088656;28;20281;-76
2022/09/06 09:34:03;;;;;;;2.30;1.33;;;;;;;;;;5085302;28;20205;-77
2022/09/06 09:36:31;;;;;;;1.80;0.90;;;;;;;;;;5085685;28;20201;-77
2022/09/06 09:39:00;;;;;;;1.30;0.80;;;;;;;;;;5088297;28;20305;-77
2022/09/06 09:41:29;;;;;;;1.10;0.80;;;;;;;;;;5087068;28;20218;-77
2022/09/06 09:43:58;;;;;;;3.50;1.10;;;;;;;;;;5086924;28;20295;-77
2022/09/06 09:46:31;;;;;;;1.77;1.10;;;;;;;;;;5092522;28;20239;-78
2022/09/06 09:49:02;;;;;;;3.03;1.10;;;;;;;;;;5090598;28;20202;-77
2022/09/06 09:51:30;;;;;;;1.57;0.97;;;;;;;;;;5093077;28;20660;-78
2022/09/06 09:53:58;;;;;;;3.33;1.00;;;;;;;;;;5088314;28;20212;-77
2022/09/06 09:56:33;;;;;;;1.53;0.90;;;;;;;;;;5089343;28;20202;-77
2022/09/06 09:59:01;;;;;;;2.07;1.00;;;;;;;;;;5083392;28;20216;-77
2022/09/06 10:01:30;;;;;;;2.10;0.90;;;;;;;;;;5089976;28;20198;-78
2022/09/06 10:04:01;;;;;;;3.47;0.90;;;;;;;;;;5088268;28;20225;-77
2022/09/06 10:06:28;;;;;;;1.13;0.87;;;;;;;;;;5090190;28;20572;-77
2022/09/06 10:08:55;;;;;;;3.13;1.00;;;;;;;;;;5087612;28;20202;-77
2022/09/06 10:14:22;;;;;;;1.90;1.07;;;;;;;;;;5067729;27;20772;-78
2022/09/06 10:16:50;;;;;;;1.40;1.03;;;;;;;;;;5056729;28;20307;-78
2022/09/06 10:19:32;;;;;;;2.13;1.00;;;;;;;;;;5047816;28;20211;-79
2022/09/06 10:22:04;;;;;;;2.30;0.80;;;;;;;;;;5049560;28;20234;-76
2022/09/06 10:24:35;;;;;;;2.03;0.93;;;;;;;;;;5042559;28;20202;-78
2022/09/06 10:27:03;;;;;;;1.10;0.80;;;;;;;;;;5041418;28;20218;-77
2022/09/06 10:29:35;;;;;;;5.70;1.20;;;;;;;;;;5046474;28;20207;-77
2022/09/06 10:32:15;;;;;;;1.67;0.70;;;;;;;;;;5039222;28;20195;-77
2022/09/06 10:34:52;;;;;;;1.80;0.90;;;;;;;;;;5045043;28;20773;-77
2022/09/06 10:37:29;;;;;;;3.23;1.17;;;;;;;;;;5038484;28;20284;-77
2022/09/06 10:39:57;;;;;;;2.57;0.90;;;;;;;;;;5045453;28;20217;-77
2022/09/06 10:42:30;;;;;;;2.93;0.80;;;;;;;;;;5044367;28;20235;-77
2022/09/06 10:45:03;;;;;;;2.00;0.80;;;;;;;;;;5046292;28;20585;-77
2022/09/06 10:47:33;;;;;;;1.23;0.70;;;;;;;;;;5046496;28;20223;-77
2022/09/06 10:50:01;;;;;;;2.27;0.80;;;;;;;;;;5043077;28;20286;-77
2022/09/06 10:52:33;;;;;;;1.90;0.80;;;;;;;;;;5048792;28;20229;-78
2022/09/06 10:55:03;;;;;;;3.23;0.73;;;;;;;;;;5047958;28;20665;-77
2022/09/06 10:57:33;;;;;;;2.83;0.93;;;;;;;;;;5044387;28;20590;-77
2022/09/06 11:00:04;;;;;;;1.70;0.80;;;;;;;;;;5043778;28;20207;-77
2022/09/06 11:02:36;;;;;;;1.73;0.90;;;;;;;;;;5043759;28;20197;-77
2022/09/06 11:05:05;;;;;;;2.37;0.77;;;;;;;;;;5043952;28;20688;-77
2022/09/06 11:07:34;;;;;;;3.87;0.80;;;;;;;;;;5050206;28;20309;-79
2022/09/06 11:10:03;;;;;;;2.93;0.77;;;;;;;;;;5041089;28;20207;-78
2022/09/06 11:12:34;;;;;;;3.00;1.00;;;;;;;;;;5037562;28;20308;-77
2022/09/06 11:15:03;;;;;;;1.90;0.70;;;;;;;;;;5043080;28;20211;-78
2022/09/06 11:17:32;;;;;;;1.30;0.73;;;;;;;;;;5041709;28;20249;-77
2022/09/06 11:20:04;;;;;;;1.43;0.90;;;;;;;;;;5038081;28;20222;-78
2022/09/06 11:22:40;;;;;;;3.40;0.70;;;;;;;;;;5039028;28;20584;-77
2022/09/06 11:25:22;;;;;;;1.47;0.60;;;;;;;;;;5035069;28;20203;-77
2022/09/06 11:27:51;;;;;;;1.17;0.80;;;;;;;;;;5031208;28;20216;-78
2022/09/06 11:30:20;;;;;;;3.53;0.70;;;;;;;;;;5031943;28;20627;-77
2022/09/06 11:32:48;;;;;;;2.53;0.80;;;;;;;;;;5034947;28;20220;-78
2022/09/06 11:35:22;;;;;;;3.57;1.00;;;;;;;;;;5032886;28;20215;-77
2022/09/06 11:37:58;;;;;;;3.50;0.90;;;;;;;;;;5030590;28;20228;-77
2022/09/06 11:40:27;;;;;;;1.83;0.70;;;;;;;;;;5033022;28;20196;-77
2022/09/06 11:43:14;;;;;;;3.77;0.80;;;;;;;;;;5033603;28;20203;-77
2022/09/06 11:45:45;;;;;;;1.17;0.80;;;;;;;;;;5034990;28;20650;-77
2022/09/06 11:48:33;;;;;;;1.57;0.77;;;;;;;;;;5035145;28;20228;-77
2022/09/06 11:51:02;;;;;;;4.50;0.90;;;;;;;;;;5029449;28;20226;-77
2022/09/06 11:53:30;;;;;;;3.40;1.17;;;;;;;;;;5030048;28;20587;-77
2022/09/06 11:56:11;;;;;;;1.93;1.00;;;;;;;;;;5039698;28;20202;-78
2022/09/06 11:58:46;;;;;;;4.20;0.97;;;;;;;;;;5035752;28;20314;-78
2022/09/06 12:01:32;;;;;;;2.47;0.90;;;;;;;;;;5036217;28;20199;-77
2022/09/06 12:04:05;;;;;;;2.20;0.80;;;;;;;;;;5032337;28;20381;-78
2022/09/06 12:06:34;;;;;;;4.27;1.07;;;;;;;;;;5029749;28;20283;-78
2022/09/06 12:09:01;;;;;;;1.20;0.80;;;;;;;;;;5031461;28;20208;-78
2022/09/06 12:11:30;;;;;;;2.90;0.80;;;;;;;;;;5034960;28;20249;-77
2022/09/06 12:14:01;;;;;;;2.33;0.87;;;;;;;;;;5033106;28;20220;-77
2022/09/06 12:16:43;;;;;;;4.17;1.10;;;;;;;;;;5032503;28;20206;-78
2022/09/06 12:19:31;;;;;;;1.93;0.90;;;;;;;;;;5029889;28;20205;-78
2022/09/06 12:21:58;;;;;;;3.77;1.07;;;;;;;;;;5035335;28;20205;-78
2022/09/06 12:24:44;;;;;;;3.03;1.00;;;;;;;;;;5029203;28;20288;-77
2022/09/06 12:27:14;;;;;;;1.97;0.87;;;;;;;;;;5031493;28;20336;-78
2022/09/06 12:29:48;;;;;;;1.83;1.00;;;;;;;;;;5033764;28;20247;-79
2022/09/06 12:32:25;;;;;;;4.00;1.33;;;;;;;;;;5035233;28;20670;-78
2022/09/06 12:34:55;;;;;;;1.43;1.00;;;;;;;;;;5036026;28;20215;-78
2022/09/06 12:37:33;;;;;;;2.60;1.07;;;;;;;;;;5030774;28;20228;-78
2022/09/06 12:40:00;;;;;;;3.50;1.13;;;;;;;;;;5037124;28;20204;-78
2022/09/06 12:42:28;;;;;;;4.13;1.03;;;;;;;;;;5031278;28;20594;-77
2022/09/06 12:44:56;;;;;;;2.13;1.07;;;;;;;;;;5036458;28;20261;-79
2022/09/06 12:47:24;;;;;;;3.33;1.13;;;;;;;;;;5034439;28;20671;-77
2022/09/06 12:52:52;;;;;;;2.17;1.20;;;;;;;;;;5088754;28;20551;-77
2022/09/06 12:55:22;;;;;;;4.73;1.30;;;;;;;;;;5089782;28;20205;-76
2022/09/06 12:57:54;;;;;;;3.77;1.20;;;;;;;;;;5080253;28;20235;-77
2022/09/06 13:00:22;;;;;;;3.83;1.57;;;;;;;;;;5070818;28;20207;-78
2022/09/06 13:02:59;;;;;;;6.83;1.20;;;;;;;;;;5069357;28;20222;-77
2022/09/06 13:05:26;;;;;;;2.77;1.30;;;;;;;;;;5066489;28;20572;-77
2022/09/06 13:07:56;;;;;;;7.47;1.10;;;;;;;;;;5070373;28;20229;-78
2022/09/06 13:10:26;;;;;;;2.83;1.27;;;;;;;;;;5065782;28;20209;-77
2022/09/06 13:12:53;;;;;;;3.03;1.13;;;;;;;;;;5064518;28;20205;-78
2022/09/06 13:15:23;;;;;;;2.60;1.00;;;;;;;;;;5066983;28;20204;-76
2022/09/06 13:17:51;;;;;;;2.97;1.20;;;;;;;;;;5065563;28;20707;-77
2022/09/06 13:20:23;;;;;;;4.90;1.20;;;;;;;;;;5061309;28;20210;-78
2022/09/06 13:22:53;;;;;;;4.27;1.00;;;;;;;;;;5067366;28;20209;-77
2022/09/06 13:25:25;;;;;;;2.47;1.07;;;;;;;;;;5067043;28;20223;-78
2022/09/06 13:27:56;;;;;;;2.43;1.30;;;;;;;;;;5060005;28;20222;-78
2022/09/06 13:30:31;;;;;;;2.97;1.10;;;;;;;;;;5066448;28;20219;-77
2022/09/06 13:32:58;;;;;;;5.30;1.30;;;;;;;;;;5062564;28;20202;-77
2022/09/06 13:35:27;;;;;;;5.33;1.40;;;;;;;;;;5066637;28;20563;-78
2022/09/06 13:37:54;;;;;;;3.03;1.00;;;;;;;;;;5056038;28;20221;-77
2022/09/06 13:40:41;;;;;;;4.97;1.33;;;;;;;;;;5068300;28;20201;-78
2022/09/06 13:43:10;;;;;;;2.70;1.10;;;;;;;;;;5065005;28;20205;-77
2022/09/06 13:45:38;;;;;;;5.03;1.63;;;;;;;;;;5064701;28;20209;-77
2022/09/06 13:48:05;;;;;;;3.27;1.00;;;;;;;;;;5063351;28;20219;-78
2022/09/06 13:50:33;;;;;;;3.17;1.30;;;;;;;;;;5061630;28;20205;-78
2022/09/06 13:53:00;;;;;;;5.43;1.20;;;;;;;;;;5063556;28;20206;-78
2022/09/06 13:55:31;;;;;;;8.57;1.27;;;;;;;;;;5063408;28;20210;-77
2022/09/06 13:57:59;;;;;;;6.77;1.47;;;;;;;;;;5055879;28;20223;-78
2022/09/06 14:00:26;;;;;;;3.37;1.17;;;;;;;;;;5064056;28;20207;-78
2022/09/06 14:02:54;;;;;;;2.93;1.30;;;;;;;;;;5055929;28;20260;-78
2022/09/06 14:05:21;;;;;;;2.37;1.17;;;;;;;;;;5053350;28;20210;-78
2022/09/06 14:07:48;;;;;;;5.33;1.53;;;;;;;;;;5048516;28;20232;-77
2022/09/06 14:10:17;;;;;;;2.57;1.13;;;;;;;;;;5050577;28;20324;-78
2022/09/06 14:12:45;;;;;;;6.13;1.20;;;;;;;;;;5048811;28;20223;-78
2022/09/06 14:15:13;;;;;;;3.23;1.10;;;;;;;;;;5053248;28;20207;-78
2022/09/06 14:17:41;;;;;;;3.77;1.30;;;;;;;;;;5049157;28;20223;-77
2022/09/06 14:20:08;;;;;;;2.70;1.10;;;;;;;;;;5054208;28;20663;-78
2022/09/06 14:22:36;;;;;;;7.37;1.37;;;;;;;;;;5048615;28;20209;-77
2022/09/06 14:25:03;;;;;;;7.20;1.40;;;;;;;;;;5054906;28;20205;-77
2022/09/06 14:27:31;;;;;;;3.47;1.30;;;;;;;;;;5050806;28;20227;-78
2022/09/06 14:29:58;;;;;;;2.63;1.30;;;;;;;;;;5043336;28;20209;-78
2022/09/06 14:32:27;;;;;;;4.80;1.40;;;;;;;;;;5051588;28;20224;-78
2022/09/06 14:34:54;;;;;;;3.73;1.30;;;;;;;;;;5051393;28;20299;-78
2022/09/06 14:37:21;;;;;;;2.63;1.30;;;;;;;;;;5046865;28;20223;-78
2022/09/06 14:39:49;;;;;;;4.77;1.10;;;;;;;;;;5054378;28;20213;-77
2022/09/06 14:42:16;;;;;;;5.30;1.13;;;;;;;;;;5054820;28;20201;-78
2022/09/06 14:44:43;;;;;;;7.53;1.57;;;;;;;;;;5046378;28;20206;-78
2022/09/06 14:47:11;;;;;;;4.87;1.40;;;;;;;;;;5048964;28;20229;-77
2022/09/06 14:49:40;;;;;;;2.30;1.20;;;;;;;;;;5055628;28;20204;-79
2022/09/06 14:52:07;;;;;;;6.03;1.70;;;;;;;;;;5053989;28;20229;-77
2022/09/06 14:54:34;;;;;;;5.53;1.50;;;;;;;;;;5047959;28;20210;-78
2022/09/06 14:57:01;;;;;;;4.90;1.40;;;;;;;;;;5065183;28;20649;-78
2022/09/06 14:59:29;;;;;;;2.83;1.37;;;;;;;;;;5047654;28;20226;-77
2022/09/06 15:01:56;;;;;;;4.00;1.20;;;;;;;;;;5064136;28;20191;-78